createdAt,value
2019-04-11T00:00:28.163Z,99354.56
2019-04-11T00:03:00.893Z,99357.48
2019-04-11T00:05:33.378Z,99352.95
2019-04-11T00:08:06.023Z,99358.16
2019-04-11T00:10:39.646Z,99354.29
2019-04-11T00:13:18.854Z,99355.19
2019-04-11T00:15:46.140Z,99361.73
2019-04-11T00:18:18.666Z,99360.68
2019-04-11T00:20:51.046Z,99357.64
2019-04-11T00:23:23.923Z,99360.29
2019-04-11T00:25:58.050Z,99360.13
2019-04-11T00:28:30.438Z,99362.15
2019-04-11T00:31:02.903Z,99359.07
2019-04-11T00:33:35.389Z,99363.63
2019-04-11T00:36:08.331Z,99367.62
2019-04-11T00:38:40.792Z,99369.12
2019-04-11T00:41:13.431Z,99370.07
2019-04-11T00:43:46.989Z,99374.38
2019-04-11T00:46:20.378Z,99370.33
2019-04-11T00:48:52.903Z,99370.53
2019-04-11T00:51:25.681Z,99370.05
2019-04-11T00:53:58.360Z,99374.41
2019-04-11T00:56:30.773Z,99374.38
2019-04-11T00:59:03.190Z,99371.89
2019-04-11T01:01:35.716Z,99374.85
2019-04-11T01:04:08.210Z,99373.58
2019-04-11T01:06:40.596Z,99369.31
2019-04-11T01:09:13.035Z,99373.25
2019-04-11T01:11:45.807Z,99372.70
2019-04-11T01:14:18.502Z,99372.61
2019-04-11T01:16:54.010Z,99377.86
2019-04-11T01:19:26.873Z,99377.89
2019-04-11T01:21:59.595Z,99374.44
2019-04-11T01:24:32.035Z,99378.42
2019-04-11T01:27:05.600Z,99376.56
2019-04-11T01:29:38.177Z,99377.25
2019-04-11T01:32:11.186Z,99378.41
2019-04-11T01:34:44.586Z,99386.47
2019-04-11T01:37:17.654Z,99386.03
2019-04-11T01:39:57.315Z,99381.71
2019-04-11T01:42:31.264Z,99383.04
2019-04-11T01:45:05.237Z,99383.02
2019-04-11T01:47:55.915Z,99385.08
2019-04-11T01:50:32.805Z,99388.72
2019-04-11T01:53:06.846Z,99393.98
2019-04-11T01:55:39.368Z,99391.11
2019-04-11T01:58:11.695Z,99392.37
2019-04-11T02:00:59.030Z,99392.16
2019-04-11T02:03:45.864Z,99397.02
2019-04-11T02:06:18.278Z,99398.56
2019-04-11T02:08:51.362Z,99395.75
2019-04-11T02:11:23.877Z,99402.11
2019-04-11T02:14:09.823Z,99400.83
2019-04-11T02:16:30.404Z,99401.67
2019-04-11T02:19:03.676Z,99406.78
2019-04-11T02:21:36.387Z,99407.27
2019-04-11T02:24:30.619Z,99410.12
2019-04-11T02:27:16.835Z,99409.62
2019-04-11T02:29:49.292Z,99411.09
2019-04-11T02:32:24.870Z,99413.43
2019-04-11T02:34:59.145Z,99415.38
2019-04-11T02:37:31.775Z,99411.96
2019-04-11T02:40:07.530Z,99418.97
2019-04-11T02:42:41.143Z,99421.56
2019-04-11T02:45:27.246Z,99423.34
2019-04-11T02:47:48.735Z,99425.16
2019-04-11T02:50:25.371Z,99427.57
2019-04-11T02:52:56.722Z,99423.60
2019-04-11T02:55:29.600Z,99426.69
2019-04-11T02:58:03.937Z,99429.81
2019-04-11T03:00:37.630Z,99441.44
2019-04-11T03:03:12.841Z,99440.79
2019-04-11T03:05:46.893Z,99440.81
2019-04-11T03:08:20.616Z,99439.92
2019-04-11T03:10:55.576Z,99441.90
2019-04-11T03:13:29.294Z,99443.05
2019-04-11T03:16:17.171Z,99445.80
2019-04-11T03:18:54.777Z,99441.91
2019-04-11T03:21:14.606Z,99446.56
2019-04-11T03:23:44.415Z,99450.33
2019-04-11T03:26:17.023Z,99455.67
2019-04-11T03:28:54.028Z,99457.30
2019-04-11T03:32:04.752Z,99460.27
2019-04-11T03:35:02.923Z,99463.95
2019-04-11T03:39:28.130Z,99466.49
2019-04-11T03:41:59.726Z,99472.31
2019-04-11T03:44:23.451Z,99467.56
2019-04-11T03:47:08.302Z,99470.98
2019-04-11T03:49:31.729Z,99476.69
2019-04-11T03:51:59.175Z,99479.18
2019-04-11T03:54:32.375Z,99482.80
2019-04-11T03:57:07.701Z,99481.75
2019-04-11T03:59:40.746Z,99481.83
2019-04-11T04:02:15.339Z,99476.00
2019-04-11T04:04:49.176Z,99479.38
2019-04-11T04:07:21.588Z,99483.77
2019-04-11T04:09:54.594Z,99483.77
2019-04-11T04:12:27.334Z,99488.34
2019-04-11T04:15:09.102Z,99486.89
2019-04-11T04:48:45.507Z,99529.81
2019-04-11T04:51:20.583Z,99527.72
2019-04-11T04:53:52.581Z,99533.49
2019-04-11T04:56:29.519Z,99532.85
2019-04-11T04:58:59.070Z,99537.95
2019-04-11T05:01:31.665Z,99540.27
2019-04-11T05:04:04.868Z,99542.03
2019-04-11T05:06:38.831Z,99541.58
2019-04-11T05:09:12.847Z,99545.70
2019-04-11T05:11:46.676Z,99552.37
2019-04-11T05:14:20.833Z,99550.69
2019-04-11T05:16:54.607Z,99551.53
2019-04-11T05:19:28.539Z,99550.55
2019-04-11T05:22:01.840Z,99555.72
2019-04-11T05:24:34.841Z,99556.01
2019-04-11T05:27:08.308Z,99560.60
2019-04-11T05:29:41.749Z,99565.14
2019-04-11T05:32:15.432Z,99568.48
2019-04-11T05:34:49.033Z,99570.06
2019-04-11T05:37:22.733Z,99571.63
2019-04-11T05:39:55.259Z,99579.72
2019-04-11T05:42:27.652Z,99579.97
2019-04-11T05:45:00.085Z,99581.87
2019-04-11T05:47:32.493Z,99586.30
2019-04-11T05:50:31.927Z,99585.27
2019-04-11T05:53:05.591Z,99587.64
2019-04-11T05:55:43.283Z,99584.38
2019-04-11T05:58:15.997Z,99587.70
2019-04-11T06:00:56.397Z,99592.72
2019-04-11T06:03:30.258Z,99591.95
2019-04-11T06:06:40.188Z,99589.05
2019-04-11T06:09:16.736Z,99591.25
2019-04-11T06:11:57.966Z,99593.23
2019-04-11T06:14:39.723Z,99593.85
2019-04-11T06:17:15.809Z,99591.88
2019-04-11T06:20:24.845Z,99596.16
2019-04-11T06:23:03.888Z,99592.57
2019-04-11T06:25:59.202Z,99591.50
2019-04-11T06:28:33.721Z,99600.91
2019-04-11T06:31:34.659Z,99602.60
2019-04-11T06:34:07.804Z,99602.44
2019-04-11T06:36:50.139Z,99605.57
2019-04-11T06:39:43.284Z,99603.79
2019-04-11T06:42:27.513Z,99607.02
2019-04-11T06:45:17.657Z,99610.98
2019-04-11T06:48:15.736Z,99605.86
2019-04-11T06:51:09.941Z,99614.33
2019-04-11T06:53:49.020Z,99616.30
2019-04-11T06:56:38.485Z,99619.94
2019-04-11T06:59:18.428Z,99622.72
2019-04-11T07:01:51.061Z,99623.17
2019-04-11T07:04:27.411Z,99617.61
2019-04-11T07:07:00.356Z,99626.03
2019-04-11T07:09:51.705Z,99618.08
2019-04-11T07:12:36.433Z,99621.35
2019-04-11T07:15:18.722Z,99619.91
2019-04-11T07:18:26.820Z,99615.52
2019-04-11T07:21:04.579Z,99624.12
2019-04-11T07:23:55.527Z,99623.14
2019-04-11T07:26:37.466Z,99622.94
2019-04-11T07:29:33.730Z,99630.44
2019-04-11T07:32:09.415Z,99624.92
2019-04-11T07:35:00.066Z,99630.84
2019-04-11T07:37:36.720Z,99625.89
2019-04-11T07:40:36.627Z,99614.39
2019-04-11T07:43:29.699Z,99627.02
2019-04-11T07:46:25.032Z,99632.09
2019-04-11T07:49:00.035Z,99634.09
2019-04-11T07:51:42.970Z,99636.23
2019-04-11T07:54:18.089Z,99632.44
2019-04-11T07:57:06.237Z,99627.92
2019-04-11T07:59:57.913Z,99629.63
2019-04-11T08:02:49.293Z,99624.41
2019-04-11T08:05:39.235Z,99627.28
2019-04-11T08:08:30.253Z,99628.97
2019-04-11T08:11:13.999Z,99634.64
2019-04-11T08:14:06.359Z,99635.59
2019-04-11T08:16:57.469Z,99639.49
2019-04-11T08:19:49.003Z,99641.45
2019-04-11T08:22:43.340Z,99638.04
2019-04-11T08:25:27.527Z,99641.23
2019-04-11T08:28:04.215Z,99632.86
2019-04-11T08:30:41.897Z,99632.85
2019-04-11T08:33:14.409Z,99630.61
2019-04-11T08:36:13.680Z,99632.36
2019-04-11T08:38:46.720Z,99632.91
2019-04-11T08:41:47.560Z,99631.48
2019-04-11T08:44:30.363Z,99628.72
2019-04-11T08:47:07.869Z,99627.36
2019-04-11T08:49:42.779Z,99627.59
2019-04-11T08:52:49.356Z,99629.98
2019-04-11T08:55:25.152Z,99632.20
2019-04-11T08:58:12.077Z,99635.44
2019-04-11T09:01:00.577Z,99632.98
2019-04-11T09:04:03.024Z,99635.20
2019-04-11T09:06:32.577Z,99634.34
2019-04-11T09:09:23.913Z,99634.48
2019-04-11T09:11:58.777Z,99634.50
2019-04-11T09:14:48.908Z,99631.95
2019-04-11T09:17:28.150Z,99629.27
2019-04-11T09:20:19.708Z,99635.45
2019-04-11T09:22:55.475Z,99628.17
2019-04-11T09:26:03.550Z,99625.63
2019-04-11T09:28:57.691Z,99621.38
2019-04-11T09:31:49.124Z,99625.17
2019-04-11T09:34:46.533Z,99626.42
2019-04-11T09:37:36.071Z,99623.55
2019-04-11T09:40:36.478Z,99616.86
2019-04-11T09:43:12.688Z,99616.70
2019-04-11T09:46:02.430Z,99620.20
2019-04-11T09:48:53.749Z,99616.30
2019-04-11T09:51:38.484Z,99616.97
2019-04-11T09:54:17.694Z,99615.24
2019-04-11T09:57:12.135Z,99612.81
2019-04-11T09:59:56.031Z,99602.08
2019-04-11T10:03:02.979Z,99615.07
2019-04-11T10:05:43.023Z,99617.77
2019-04-11T10:08:43.663Z,99614.66
2019-04-11T10:11:54.882Z,99615.81
2019-04-11T10:14:29.553Z,99621.50
2019-04-11T10:17:22.694Z,99619.52
2019-04-11T10:19:56.961Z,99613.95
2019-04-11T10:22:47.925Z,99616.76
2019-04-11T10:25:39.368Z,99619.12
2019-04-11T10:28:30.783Z,99624.41
2019-04-11T10:31:30.530Z,99619.99
2019-04-11T10:34:25.766Z,99621.08
2019-04-11T10:37:01.421Z,99622.54
2019-04-11T10:39:59.849Z,99619.58
2019-04-11T10:42:32.905Z,99616.62
2019-04-11T10:45:28.964Z,99611.80
2019-04-11T10:48:06.764Z,99609.35
2019-04-11T10:50:56.732Z,99606.56
2019-04-11T10:53:29.115Z,99613.52
2019-04-11T10:56:24.482Z,99610.56
2019-04-11T10:58:59.540Z,99611.37
2019-04-11T11:02:04.385Z,99607.58
2019-04-11T11:04:46.699Z,99606.95
2019-04-11T11:07:21.899Z,99610.24
2019-04-11T11:09:58.531Z,99619.13
2019-04-11T11:12:47.541Z,99611.98
2019-04-11T11:15:25.796Z,99620.24
2019-04-11T11:21:02.608Z,99615.38
2019-04-11T11:23:52.495Z,99621.27
2019-04-11T11:26:32.062Z,99616.48
2019-04-11T11:29:26.742Z,99606.02
2019-04-11T11:32:25.181Z,99617.08
2019-04-11T11:35:27.614Z,99619.26
2019-04-11T11:38:01.927Z,99625.34
2019-04-11T11:40:52.382Z,99622.66
2019-04-11T11:43:30.988Z,99618.36
2019-04-11T11:46:25.719Z,99625.58
2019-04-11T11:49:02.797Z,99620.98
2019-04-11T11:52:03.568Z,99618.09
2019-04-11T11:54:39.823Z,99624.66
2019-04-11T11:57:18.265Z,99632.42
2019-04-11T11:59:55.174Z,99624.76
2019-04-11T12:02:32.720Z,99627.27
2019-04-11T12:05:26.690Z,99624.38
2019-04-11T12:08:18.212Z,99629.53
2019-04-11T12:10:53.420Z,99623.22
2019-04-11T12:13:45.507Z,99625.33
2019-04-11T12:16:36.272Z,99623.84
2019-04-11T12:19:22.242Z,99625.47
2019-04-11T12:21:56.040Z,99616.88
2019-04-11T12:24:43.056Z,99612.37
2019-04-11T12:27:37.270Z,99614.27
2019-04-11T12:30:33.623Z,99613.34
2019-04-11T12:33:23.495Z,99621.70
2019-04-11T12:36:10.466Z,99608.09
2019-04-11T12:39:01.799Z,99608.56
2019-04-11T12:41:54.475Z,99612.35
2019-04-11T12:44:51.671Z,99598.98
2019-04-11T12:47:42.315Z,99600.04
2019-04-11T12:50:33.641Z,99604.13
2019-04-11T12:53:07.567Z,99602.80
2019-04-11T12:55:58.429Z,99605.19
2019-04-11T12:58:34.702Z,99600.98
2019-04-11T13:01:45.531Z,99604.45
2019-04-11T13:04:31.523Z,99599.00
2019-04-11T13:07:22.888Z,99599.53
2019-04-11T13:09:57.812Z,99592.97
2019-04-11T13:12:48.184Z,99585.64
2019-04-11T13:15:32.486Z,99590.62
2019-04-11T13:18:26.580Z,99586.28
2019-04-11T13:21:20.966Z,99586.61
2019-04-11T13:24:11.950Z,99579.76
2019-04-11T13:27:06.119Z,99580.69
2019-04-11T13:30:03.721Z,99580.45
2019-04-11T13:32:47.814Z,99567.63
2019-04-11T13:35:39.905Z,99568.92
2019-04-11T13:38:20.656Z,99572.81
2019-04-11T13:41:20.421Z,99575.64
2019-04-11T13:43:58.879Z,99570.43
2019-04-11T13:46:50.260Z,99568.50
2019-04-11T13:49:50.623Z,99574.47
2019-04-11T13:52:36.825Z,99572.83
2019-04-11T13:55:43.518Z,99573.17
2019-04-11T13:58:33.331Z,99572.38
2019-04-11T14:01:13.629Z,99578.92
2019-04-11T14:06:26.399Z,99577.95
2019-04-11T14:09:17.712Z,99574.36
2019-04-11T14:11:51.729Z,99570.33
2019-04-11T14:14:32.924Z,99567.41
2019-04-11T14:17:17.986Z,99565.98
2019-04-11T14:19:58.835Z,99563.16
2019-04-11T14:22:38.148Z,99563.23
2019-04-11T14:25:36.115Z,99561.78
2019-04-11T14:28:08.970Z,99559.02
2019-04-11T14:31:03.325Z,99557.14
2019-04-11T14:33:36.729Z,99557.19
2019-04-11T14:36:33.654Z,99561.39
2019-04-11T14:39:06.011Z,99563.73
2019-04-11T14:41:59.720Z,99563.05
2019-04-11T14:44:31.808Z,99566.75
2019-04-11T14:47:23.095Z,99564.14
2019-04-11T14:50:01.206Z,99560.28
2019-04-11T14:52:58.892Z,99561.21
2019-04-11T14:55:36.766Z,99561.25
2019-04-11T14:58:27.465Z,99563.22
2019-04-11T15:00:59.957Z,99561.95
2019-04-11T15:03:49.644Z,99559.69
2019-04-11T15:06:31.941Z,99552.48
2019-04-11T15:09:33.903Z,99562.67
2019-04-11T15:12:26.087Z,99561.15
2019-04-11T15:15:22.011Z,99556.58
2019-04-11T15:17:56.627Z,99553.96
2019-04-11T15:20:55.200Z,99559.13
2019-04-11T15:23:37.706Z,99559.95
2019-04-11T15:26:29.545Z,99559.88
2019-04-11T15:29:19.788Z,99558.19
2019-04-11T15:32:09.754Z,99559.27
2019-04-11T15:34:47.832Z,99550.58
2019-04-11T15:37:47.874Z,99555.85
2019-04-11T15:40:32.990Z,99560.08
2019-04-11T15:43:42.067Z,99563.40
2019-04-11T15:46:22.174Z,99560.42
2019-04-11T15:49:20.538Z,99564.14
2019-04-11T15:51:50.583Z,99560.20
2019-04-11T15:54:42.987Z,99559.89
2019-04-11T15:57:28.230Z,99566.95
2019-04-11T16:00:28.459Z,99570.95
2019-04-11T16:03:15.371Z,99569.41
2019-04-11T16:06:12.871Z,99572.06
2019-04-11T16:09:00.866Z,99566.29
2019-04-11T16:11:53.772Z,99572.48
2019-04-11T16:14:28.129Z,99574.07
2019-04-11T16:17:34.585Z,99571.36
2019-04-11T16:20:12.405Z,99577.48
2019-04-11T16:23:15.923Z,99571.72
2019-04-11T16:25:53.298Z,99569.59
2019-04-11T16:28:59.714Z,99571.56
2019-04-11T16:31:40.125Z,99576.48
2019-04-11T16:34:25.942Z,99575.20
2019-04-11T16:37:00.929Z,99576.05
2019-04-11T16:39:53.486Z,99576.37
2019-04-11T16:42:32.098Z,99579.25
2019-04-11T16:45:25.023Z,99579.69
2019-04-11T16:48:03.084Z,99580.48
2019-04-11T16:50:35.413Z,99580.55
2019-04-11T16:53:10.509Z,99578.47
2019-04-11T16:55:43.358Z,99581.72
2019-04-11T16:58:19.471Z,99577.51
2019-04-11T17:00:52.577Z,99584.39
2019-04-11T17:03:25.775Z,99589.14
2019-04-11T17:06:07.113Z,99591.33
2019-04-11T17:08:58.438Z,99596.25
2019-04-11T17:11:30.835Z,99598.87
2019-04-11T17:14:03.209Z,99606.52
2019-04-11T17:16:35.614Z,99610.71
2019-04-11T17:19:08.096Z,99606.94
2019-04-11T17:21:43.371Z,99607.89
2019-04-11T17:24:16.755Z,99606.52
2019-04-11T17:26:52.393Z,99611.16
2019-04-11T17:29:24.893Z,99622.42
2019-04-11T17:31:56.873Z,99621.75
2019-04-11T17:34:32.154Z,99618.98
2019-04-11T17:37:03.434Z,99624.11
2019-04-11T17:39:36.822Z,99627.69
2019-04-11T17:42:10.808Z,99629.02
2019-04-11T17:44:43.834Z,99640.27
2019-04-11T17:47:16.236Z,99637.71
2019-04-11T17:49:48.634Z,99635.48
2019-04-11T17:52:21.039Z,99632.72
2019-04-11T17:54:54.296Z,99638.47
2019-04-11T17:57:27.725Z,99643.13
2019-04-11T18:00:00.147Z,99649.59
2019-04-11T18:02:32.577Z,99653.32
2019-04-11T18:05:05.018Z,99656.41
2019-04-11T18:07:37.433Z,99659.61
2019-04-11T18:10:11.401Z,99668.02
2019-04-11T18:12:43.803Z,99666.43
2019-04-11T18:15:16.182Z,99674.42
2019-04-11T18:17:48.615Z,99680.00
2019-04-11T18:20:21.017Z,99679.16
2019-04-11T18:22:53.667Z,99686.18
2019-04-11T18:25:26.048Z,99687.92
2019-04-11T18:27:58.463Z,99690.58
2019-04-11T18:30:30.847Z,99689.41
2019-04-11T18:33:03.313Z,99694.03
2019-04-11T18:35:35.696Z,99695.28
2019-04-11T18:38:08.096Z,99696.43
2019-04-11T18:40:40.890Z,99699.77
2019-04-11T18:43:16.215Z,99704.08
2019-04-11T18:45:48.639Z,99706.03
2019-04-11T18:48:21.041Z,99702.98
2019-04-11T18:50:53.839Z,99707.43
2019-04-11T18:53:26.388Z,99713.53
2019-04-11T18:56:01.482Z,99715.48
2019-04-11T18:58:34.473Z,99720.52
2019-04-11T19:01:09.139Z,99723.60
2019-04-11T19:03:41.901Z,99724.71
2019-04-11T19:06:14.347Z,99727.03
2019-04-11T19:08:46.836Z,99727.03
2019-04-11T19:11:19.212Z,99729.78
2019-04-11T19:13:51.621Z,99734.52
2019-04-11T19:16:23.997Z,99737.53
2019-04-11T19:18:56.415Z,99737.48
2019-04-11T19:21:28.823Z,99740.06
2019-04-11T19:24:01.429Z,99742.03
2019-04-11T19:26:34.865Z,99744.14
2019-04-11T19:29:07.266Z,99745.34
2019-04-11T19:31:41.074Z,99746.19
2019-04-11T19:34:13.583Z,99746.03
2019-04-11T19:36:45.965Z,99750.19
2019-04-11T19:39:19.341Z,99747.71
2019-04-11T19:41:51.781Z,99752.67
2019-04-11T19:44:24.184Z,99752.25
2019-04-11T19:46:56.557Z,99751.93
2019-04-11T19:49:29.627Z,99753.10
2019-04-11T19:52:03.045Z,99751.37
2019-04-11T19:54:35.473Z,99753.91
2019-04-11T19:57:08.041Z,99756.13
2019-04-11T19:59:40.457Z,99762.23
2019-04-11T20:02:12.855Z,99755.59
2019-04-11T20:04:46.592Z,99762.97
2019-04-11T20:07:19.277Z,99762.98
2019-04-11T20:09:51.679Z,99760.26
2019-04-11T20:12:24.047Z,99759.98
2019-04-11T20:14:56.464Z,99755.95
2019-04-11T20:17:28.835Z,99761.47
2019-04-11T20:20:04.401Z,99758.70
2019-04-11T20:22:39.195Z,99761.73
2019-04-11T20:25:09.433Z,99762.86
2019-04-11T20:27:41.832Z,99761.73
2019-04-11T20:30:14.237Z,99768.41
2019-04-11T20:32:46.600Z,99770.06
2019-04-11T20:35:28.395Z,99770.72
2019-04-11T20:37:54.317Z,99767.39
2019-04-11T20:40:26.861Z,99770.20
2019-04-11T20:42:59.234Z,99774.33
2019-04-11T20:45:33.755Z,99774.88
2019-04-11T20:48:06.129Z,99778.59
2019-04-11T20:50:38.534Z,99782.56
2019-04-11T20:53:12.856Z,99792.79
2019-04-11T20:55:45.004Z,99790.27
2019-04-11T20:58:26.808Z,99792.85
2019-04-11T21:00:55.653Z,99794.56
2019-04-11T21:03:29.835Z,99796.14
2019-04-11T21:06:01.802Z,99797.05
2019-04-11T21:08:36.559Z,99798.89
2019-04-11T21:11:07.886Z,99799.23
2019-04-11T21:13:40.261Z,99801.94
2019-04-11T21:16:12.662Z,99800.43
2019-04-11T21:18:45.037Z,99796.82
2019-04-11T21:21:17.435Z,99797.53
2019-04-11T21:23:49.811Z,99797.25
2019-04-11T21:26:22.206Z,99799.66
2019-04-11T21:28:58.587Z,99804.78
2019-04-11T21:31:30.963Z,99803.48
2019-04-11T21:34:02.979Z,99804.77
2019-04-11T21:36:35.925Z,99807.02
2019-04-11T21:39:08.939Z,99812.63
2019-04-11T21:41:42.744Z,99812.56
2019-04-11T21:44:16.588Z,99822.22
2019-04-11T21:46:49.405Z,99819.69
2019-04-11T21:49:22.044Z,99818.75
2019-04-11T21:51:54.451Z,99818.91
2019-04-11T21:54:26.829Z,99817.66
2019-04-11T21:56:59.234Z,99815.50
2019-04-11T21:59:31.618Z,99814.41
2019-04-11T22:02:04.043Z,99815.78
2019-04-11T22:04:36.495Z,99813.59
2019-04-11T22:07:08.967Z,99813.08
2019-04-11T22:09:41.355Z,99808.15
2019-04-11T22:12:13.831Z,99813.10
2019-04-11T22:14:46.227Z,99814.01
2019-04-11T22:17:18.640Z,99819.28
2019-04-11T22:19:51.026Z,99817.08
2019-04-11T22:22:23.437Z,99815.63
2019-04-11T22:24:55.813Z,99816.44
2019-04-11T22:27:28.321Z,99823.86
2019-04-11T22:30:00.706Z,99829.48
2019-04-11T22:32:33.270Z,99830.98
2019-04-11T22:35:05.683Z,99828.76
2019-04-11T22:37:39.278Z,99834.47
2019-04-11T22:40:11.659Z,99833.10
2019-04-11T22:42:44.074Z,99828.50
2019-04-11T22:45:17.521Z,99836.25
2019-04-11T22:47:49.940Z,99835.44
2019-04-11T22:50:22.331Z,99836.42
2019-04-11T22:52:54.726Z,99834.64
2019-04-11T22:55:27.116Z,99835.95
2019-04-11T22:57:59.523Z,99835.80
2019-04-11T23:00:31.902Z,99835.33
2019-04-11T23:03:23.263Z,99839.34
2019-04-11T23:05:55.646Z,99833.91
2019-04-11T23:08:28.051Z,99834.45
2019-04-11T23:11:00.373Z,99833.77
2019-04-11T23:13:32.790Z,99837.03
2019-04-11T23:16:05.182Z,99838.95
2019-04-11T23:18:37.577Z,99836.45
2019-04-11T23:21:11.830Z,99837.51
2019-04-11T23:23:44.079Z,99841.80
2019-04-11T23:26:16.472Z,99847.69
2019-04-11T23:28:48.858Z,99842.40
2019-04-11T23:31:21.235Z,99841.77
2019-04-11T23:33:53.566Z,99841.36
2019-04-11T23:36:25.938Z,99841.39
2019-04-11T23:38:58.342Z,99840.58
2019-04-11T23:41:30.729Z,99833.69
2019-04-11T23:44:03.157Z,99845.16
2019-04-11T23:46:35.463Z,99838.40
2019-04-11T23:49:07.861Z,99836.82
2019-04-11T23:51:40.244Z,99837.25
2019-04-11T23:54:22.701Z,99840.89
2019-04-11T23:56:46.737Z,99842.08
2019-04-11T23:59:19.149Z,99838.91
